K.pluto — 3EYQ3 — position and weather

sailwx.info

Track history (hours):
 
Tides and Currents Weather Stations Pressure Air Temp Water Temp Dewpoint Dewpoint Depression Visibility Wind Speed Wind Dir Waves Ship Positions

K.pluto

Last reported at 2015-Aug-02 19:33 UTC. Time now 2015-Aug-05 12:32 UTC.
Position N 03°19' E 100°33'.

Length 170 m; draft 7.3 m.

Type: Cargo ship. MMSI: 373504000.

Date/timePositionNaut miles runAvg speedWind from/ knotsBaromVisibWave heightAir tempDewpointWater temp
2015-Aug-02 19:33N 03°19' E 100°33'1313.5
2015-Aug-02 18:33N 03°08' E 100°42'4414.8
2015-Aug-02 15:33N 02°41' E 101°17'2412.2
2015-Aug-02 13:33N 02°28' E 101°38'14412.7
2015-Aug-02 02:11N 01°11' E 103°39'710.6
2015-Aug-02 01:33N 01°09' E 103°46'5 4.5
2015-Aug-02 00:31N 01°13' E 103°49'1 0.9
2015-Aug-01 23:33N 01°12' E 103°50'6 5.3
2015-Aug-01 22:31N 01°16' E 103°54'0 0.1
2015-Aug-01 21:28N 01°16' E 103°54'0 0.0
2015-Aug-01 20:28N 01°16' E 103°54'0 0.0
2015-Aug-01 19:31N 01°16' E 103°54'0 0.0
2015-Aug-01 18:31N 01°16' E 103°54'0 0.0
2015-Aug-01 17:33N 01°16' E 103°54'0 0.0
2015-Aug-01 16:33N 01°16' E 103°54'0 0.1
2015-Aug-01 15:33N 01°16' E 103°54'0 0.1
2015-Aug-01 14:33N 01°16' E 103°54'4 3.7
2015-Aug-01 13:33N 01°14' E 103°57'  
Track history (hours):
 
Tides and Currents Weather Stations Pressure Air Temp Water Temp Dewpoint Dewpoint Depression Visibility Wind Speed Wind Dir Waves Ship Positions

K.pluto

Last reported at 2015-Aug-02 19:33 UTC. Time now 2015-Aug-05 12:32 UTC.
Position N 03°19' E 100°33'.

Length 170 m; draft 7.3 m.

Type: Cargo ship. MMSI: 373504000.

Date/timePositionNaut miles runAvg speedWind from/ knotsBaromVisibWave heightAir tempDewpointWater temp
2015-Aug-02 19:33N 03°19' E 100°33'1313.5
2015-Aug-02 18:33N 03°08' E 100°42'4414.8
2015-Aug-02 15:33N 02°41' E 101°17'2412.2
2015-Aug-02 13:33N 02°28' E 101°38'14412.7
2015-Aug-02 02:11N 01°11' E 103°39'710.6
2015-Aug-02 01:33N 01°09' E 103°46'5 4.5
2015-Aug-02 00:31N 01°13' E 103°49'1 0.9
2015-Aug-01 23:33N 01°12' E 103°50'6 5.3
2015-Aug-01 22:31N 01°16' E 103°54'0 0.1
2015-Aug-01 21:28N 01°16' E 103°54'0 0.0
2015-Aug-01 20:28N 01°16' E 103°54'0 0.0
2015-Aug-01 19:31N 01°16' E 103°54'0 0.0
2015-Aug-01 18:31N 01°16' E 103°54'0 0.0
2015-Aug-01 17:33N 01°16' E 103°54'0 0.0
2015-Aug-01 16:33N 01°16' E 103°54'0 0.1
2015-Aug-01 15:33N 01°16' E 103°54'0 0.1
2015-Aug-01 14:33N 01°16' E 103°54'4 3.7
2015-Aug-01 13:33N 01°14' E 103°57'  

Dump ship's entire track history